createdAt,value
2024-02-07T00:00:36.088Z,3.80
2024-02-07T00:01:33.098Z,4.10
2024-02-07T00:02:07.080Z,4.10
2024-02-07T00:02:41.670Z,4.50
2024-02-07T00:03:15.655Z,4.10
2024-02-07T00:03:49.824Z,4.30
2024-02-07T00:04:23.474Z,4.50
2024-02-07T00:04:57.852Z,3.40
2024-02-07T00:05:36.699Z,4.20
2024-02-07T00:06:13.084Z,4.20
2024-02-07T00:06:48.846Z,4.30
2024-02-07T00:07:23.655Z,3.80
2024-02-07T00:08:01.270Z,3.90
2024-02-07T00:08:35.429Z,4.30
2024-02-07T00:09:09.643Z,4.20
2024-02-07T00:09:45.442Z,4.40
2024-02-07T00:10:19.000Z,3.70
2024-02-07T00:11:04.106Z,4.00
2024-02-07T00:11:40.151Z,4.20
2024-02-07T00:12:15.127Z,4.50
2024-02-07T00:12:49.064Z,5.70
2024-02-07T00:13:23.080Z,4.30
2024-02-07T00:14:17.364Z,5.30
2024-02-07T00:14:54.254Z,4.30
2024-02-07T00:15:48.321Z,4.70
2024-02-07T00:16:22.427Z,4.70
2024-02-07T00:16:59.835Z,3.70
2024-02-07T00:17:34.080Z,4.40
2024-02-07T00:18:21.450Z,3.90
2024-02-07T00:19:05.166Z,4.50
2024-02-07T00:19:38.867Z,4.30
2024-02-07T00:20:21.649Z,3.90
2024-02-07T00:21:07.010Z,3.90
2024-02-07T00:21:40.683Z,4.40
2024-02-07T00:22:15.967Z,4.30
2024-02-07T00:22:54.678Z,4.20
2024-02-07T00:23:34.194Z,3.60
2024-02-07T00:24:08.109Z,4.20
2024-02-07T00:24:42.100Z,3.50
2024-02-07T00:25:16.407Z,3.90
2024-02-07T00:25:50.095Z,4.20
2024-02-07T00:26:23.883Z,3.30
2024-02-07T00:27:00.719Z,4.30
2024-02-07T00:27:35.133Z,3.60
2024-02-07T00:28:09.077Z,4.50
2024-02-07T00:28:42.466Z,4.90
2024-02-07T00:29:16.305Z,4.00
2024-02-07T00:29:50.136Z,3.50
2024-02-07T00:30:30.992Z,4.20
2024-02-07T00:31:09.088Z,3.60
2024-02-07T00:31:42.748Z,4.40
2024-02-07T00:32:17.023Z,3.80
2024-02-07T00:32:51.121Z,3.60
2024-02-07T00:33:24.823Z,4.00
2024-02-07T00:33:58.232Z,3.50
2024-02-07T00:34:34.255Z,4.70
2024-02-07T00:35:08.777Z,4.90
2024-02-07T00:35:43.054Z,4.90
2024-02-07T00:36:16.268Z,4.50
2024-02-07T00:36:49.814Z,3.90
2024-02-07T00:37:23.600Z,4.10
2024-02-07T00:37:58.432Z,4.90
2024-02-07T00:38:32.347Z,4.30
2024-02-07T00:39:06.441Z,4.20
2024-02-07T00:39:40.186Z,4.60
2024-02-07T00:40:14.413Z,4.40
2024-02-07T00:40:48.322Z,4.60
2024-02-07T00:41:23.605Z,3.80
2024-02-07T00:41:57.932Z,4.80
2024-02-07T00:42:31.612Z,4.60
2024-02-07T00:43:05.642Z,4.40
2024-02-07T00:43:39.369Z,4.70
2024-02-07T00:44:13.237Z,4.00
2024-02-07T00:44:47.369Z,3.60
2024-02-07T00:45:22.023Z,3.90
2024-02-07T00:45:56.443Z,4.00
2024-02-07T00:46:29.968Z,4.80
2024-02-07T00:47:03.592Z,4.10
2024-02-07T00:47:37.188Z,4.00
2024-02-07T00:48:10.662Z,4.30
2024-02-07T00:48:44.376Z,4.00
2024-02-07T00:49:17.822Z,3.90
2024-02-07T00:49:51.233Z,3.90
2024-02-07T00:50:24.688Z,5.10
2024-02-07T00:50:58.199Z,4.60
2024-02-07T00:51:32.508Z,3.90
2024-02-07T00:52:08.082Z,4.20
2024-02-07T00:52:41.684Z,5.00
2024-02-07T00:53:16.195Z,4.20
2024-02-07T00:53:49.456Z,4.30
2024-02-07T00:54:25.019Z,4.20
2024-02-07T00:54:58.485Z,4.00
2024-02-07T00:55:31.716Z,3.40
2024-02-07T00:56:05.792Z,4.10
2024-02-07T00:56:39.278Z,3.80
2024-02-07T00:57:13.032Z,4.30
2024-02-07T00:57:48.263Z,3.90
2024-02-07T00:58:21.751Z,3.50
2024-02-07T00:58:55.080Z,4.10
2024-02-07T00:59:29.228Z,3.70
2024-02-07T01:00:03.097Z,3.70
2024-02-07T01:00:37.460Z,3.80
2024-02-07T01:01:10.927Z,4.60
2024-02-07T01:01:44.610Z,4.40
2024-02-07T01:02:18.083Z,4.50
2024-02-07T01:02:52.562Z,4.30
2024-02-07T01:03:25.890Z,4.70
2024-02-07T01:03:59.511Z,4.20
2024-02-07T01:04:33.029Z,3.90
2024-02-07T01:05:06.850Z,4.30
2024-02-07T01:05:43.338Z,5.20
2024-02-07T01:06:21.344Z,3.90
2024-02-07T01:06:54.789Z,3.50
2024-02-07T01:07:28.447Z,4.40
2024-02-07T01:08:02.800Z,4.10
2024-02-07T01:08:36.246Z,4.40
2024-02-07T01:09:12.526Z,4.70
2024-02-07T01:10:12.856Z,4.30
2024-02-07T01:10:48.819Z,4.00
2024-02-07T01:11:22.132Z,4.00
2024-02-07T01:11:59.030Z,4.80
2024-02-07T01:12:33.779Z,3.80
2024-02-07T01:13:07.427Z,4.10
2024-02-07T01:13:40.917Z,3.90
2024-02-07T01:14:15.024Z,4.40
2024-02-07T01:14:49.853Z,4.00
2024-02-07T01:15:24.247Z,4.30
2024-02-07T01:15:57.762Z,5.00
2024-02-07T01:16:31.015Z,4.30
2024-02-07T01:17:04.520Z,4.20
2024-02-07T01:17:38.525Z,4.40
2024-02-07T01:18:12.077Z,5.10
2024-02-07T01:18:45.982Z,4.50
2024-02-07T01:19:19.638Z,4.90
2024-02-07T01:19:54.319Z,4.70
2024-02-07T01:20:27.895Z,4.50
2024-02-07T01:21:01.443Z,4.50
2024-02-07T01:21:34.886Z,4.20
2024-02-07T01:22:08.128Z,4.50
2024-02-07T01:22:41.568Z,4.30
2024-02-07T01:23:14.984Z,4.50
2024-02-07T01:23:48.442Z,4.20
2024-02-07T01:24:21.739Z,4.40
2024-02-07T01:24:56.593Z,4.10
2024-02-07T01:25:30.021Z,4.70
2024-02-07T01:26:03.883Z,4.40
2024-02-07T01:26:38.864Z,3.90
2024-02-07T01:27:12.925Z,4.50
2024-02-07T01:27:46.295Z,4.60
2024-02-07T01:28:20.474Z,4.00
2024-02-07T01:28:53.954Z,4.40
2024-02-07T01:29:29.585Z,4.60
2024-02-07T01:30:03.063Z,4.50
2024-02-07T01:30:36.523Z,4.10
2024-02-07T01:31:10.204Z,3.70
2024-02-07T01:31:43.702Z,3.70
2024-02-07T01:32:18.060Z,4.00
2024-02-07T01:32:51.431Z,4.70
2024-02-07T01:33:24.888Z,4.20
2024-02-07T01:33:59.593Z,4.10
2024-02-07T01:34:33.145Z,3.60
2024-02-07T01:35:07.653Z,5.10
2024-02-07T01:35:43.913Z,4.30
2024-02-07T01:36:17.471Z,4.80
2024-02-07T01:36:50.728Z,4.70
2024-02-07T01:37:24.068Z,5.00
2024-02-07T01:38:06.284Z,3.90
2024-02-07T01:38:43.094Z,4.80
2024-02-07T01:39:19.483Z,5.50
2024-02-07T01:39:53.226Z,4.20
2024-02-07T01:40:26.625Z,4.10
2024-02-07T01:41:00.591Z,4.20
2024-02-07T01:41:53.994Z,4.80
2024-02-07T01:42:35.461Z,4.30
2024-02-07T01:43:09.195Z,4.20
2024-02-07T01:43:42.838Z,4.20
2024-02-07T01:44:16.318Z,5.00
2024-02-07T01:44:49.828Z,4.70
2024-02-07T01:45:31.915Z,4.40
2024-02-07T01:46:05.390Z,4.10
2024-02-07T01:46:38.948Z,4.40
2024-02-07T01:47:14.758Z,3.90
2024-02-07T01:47:49.758Z,4.10
2024-02-07T01:48:23.962Z,4.00
2024-02-07T01:48:57.611Z,4.90
2024-02-07T01:49:30.986Z,4.40
2024-02-07T01:50:04.894Z,4.60
2024-02-07T01:50:42.090Z,4.90
2024-02-07T01:51:15.705Z,4.90
2024-02-07T01:51:49.874Z,4.30
2024-02-07T01:52:26.081Z,5.20
2024-02-07T01:53:02.797Z,4.30
2024-02-07T01:53:39.784Z,5.00
2024-02-07T01:54:13.673Z,4.80
2024-02-07T01:54:47.351Z,5.30
2024-02-07T01:55:22.225Z,5.40
2024-02-07T01:55:57.994Z,4.60
2024-02-07T01:56:31.562Z,4.80
2024-02-07T01:57:05.077Z,4.30
2024-02-07T01:57:38.326Z,4.80
2024-02-07T01:58:11.964Z,4.40
2024-02-07T01:58:45.797Z,4.30
2024-02-07T01:59:21.214Z,3.90
2024-02-07T01:59:57.282Z,4.80
2024-02-07T02:00:33.511Z,3.90
2024-02-07T02:01:08.760Z,4.20
2024-02-07T02:01:43.573Z,4.30
2024-02-07T02:02:17.243Z,4.90
2024-02-07T02:02:53.594Z,4.50
2024-02-07T02:03:27.140Z,4.40
2024-02-07T02:04:00.760Z,4.30
2024-02-07T02:04:34.951Z,3.80
2024-02-07T02:05:08.913Z,3.80
2024-02-07T02:05:42.365Z,4.60
2024-02-07T02:06:16.764Z,4.70
2024-02-07T02:06:53.640Z,3.80
2024-02-07T02:07:27.134Z,4.20
2024-02-07T02:08:03.798Z,3.90
2024-02-07T02:08:38.181Z,3.90
2024-02-07T02:09:11.758Z,3.90
2024-02-07T02:09:46.666Z,3.80
2024-02-07T02:10:20.729Z,3.40
2024-02-07T02:11:02.692Z,4.50
2024-02-07T02:11:42.502Z,3.80
2024-02-07T02:12:16.636Z,3.70
2024-02-07T02:12:50.417Z,4.40
2024-02-07T02:13:23.774Z,4.70
2024-02-07T02:13:58.427Z,4.70
2024-02-07T02:14:34.645Z,3.80
2024-02-07T02:15:09.539Z,3.60
2024-02-07T02:15:46.105Z,3.80
2024-02-07T02:16:19.757Z,4.30
2024-02-07T02:16:53.741Z,4.10
2024-02-07T02:17:27.338Z,3.70
2024-02-07T02:18:00.850Z,4.00
2024-02-07T02:18:35.778Z,3.50
2024-02-07T02:19:09.221Z,4.40
2024-02-07T02:19:45.390Z,4.30
2024-02-07T02:20:19.102Z,4.20
2024-02-07T02:20:52.972Z,3.90
2024-02-07T02:21:35.574Z,3.20
2024-02-07T02:22:49.147Z,4.10
2024-02-07T02:23:46.884Z,4.00
2024-02-07T02:24:30.234Z,3.10
2024-02-07T02:25:37.651Z,3.30
2024-02-07T02:26:36.603Z,3.10
2024-02-07T02:28:19.213Z,4.10
2024-02-07T02:29:06.418Z,3.20
2024-02-07T02:29:43.624Z,3.30
2024-02-07T02:30:36.211Z,3.40
2024-02-07T02:31:16.254Z,3.30
2024-02-07T02:31:56.247Z,4.40
2024-02-07T02:32:31.425Z,3.90
2024-02-07T02:33:11.477Z,3.80
2024-02-07T02:33:47.787Z,4.50
2024-02-07T02:34:21.571Z,4.60
2024-02-07T02:34:56.801Z,4.40
2024-02-07T02:35:32.668Z,4.40
2024-02-07T02:36:07.012Z,4.90
2024-02-07T02:36:43.386Z,4.80
2024-02-07T02:37:16.857Z,5.20
2024-02-07T02:37:51.392Z,4.80
2024-02-07T02:38:26.950Z,4.40
2024-02-07T02:39:08.859Z,4.50
2024-02-07T02:39:42.599Z,3.80
2024-02-07T02:40:18.637Z,4.80
2024-02-07T02:40:56.323Z,4.60
2024-02-07T02:41:29.802Z,4.70
2024-02-07T02:42:03.158Z,4.10
2024-02-07T02:42:36.556Z,3.80
2024-02-07T02:43:11.453Z,4.00
2024-02-07T02:43:45.113Z,4.40
2024-02-07T02:44:20.493Z,4.90
2024-02-07T02:44:53.895Z,4.10
2024-02-07T02:45:30.247Z,4.50
2024-02-07T02:46:05.245Z,3.80
2024-02-07T02:46:38.639Z,4.30
2024-02-07T02:47:14.297Z,3.80
2024-02-07T02:47:49.385Z,3.80
2024-02-07T02:48:23.025Z,3.80
2024-02-07T02:48:56.490Z,4.70
2024-02-07T02:49:32.416Z,4.50
2024-02-07T02:50:08.410Z,4.20
2024-02-07T02:50:42.041Z,3.90
2024-02-07T02:51:15.437Z,4.40
2024-02-07T02:51:50.039Z,4.90
2024-02-07T02:52:23.679Z,4.00
2024-02-07T02:53:00.356Z,4.00
2024-02-07T02:53:34.194Z,4.00
2024-02-07T02:54:07.489Z,4.30
2024-02-07T02:54:45.793Z,3.70
2024-02-07T02:55:19.684Z,4.00
2024-02-07T02:55:53.165Z,3.80
2024-02-07T02:56:27.609Z,3.70
2024-02-07T02:57:03.303Z,4.40
2024-02-07T02:57:37.556Z,5.30
2024-02-07T02:58:15.157Z,4.20
2024-02-07T02:58:53.087Z,3.20
2024-02-07T02:59:28.854Z,4.00
2024-02-07T03:00:08.170Z,4.30
2024-02-07T03:00:47.978Z,3.90
2024-02-07T03:01:22.197Z,4.10
2024-02-07T03:01:56.608Z,4.20
2024-02-07T03:02:32.773Z,3.40
2024-02-07T03:03:06.271Z,2.90
2024-02-07T03:03:40.011Z,4.50
2024-02-07T03:04:17.458Z,3.90
2024-02-07T03:04:52.352Z,3.80
2024-02-07T03:05:40.221Z,4.00
2024-02-07T03:06:14.631Z,3.00
2024-02-07T03:06:48.975Z,3.60
2024-02-07T03:07:23.081Z,3.50
2024-02-07T03:08:06.667Z,4.00
2024-02-07T03:08:41.152Z,4.90
2024-02-07T03:09:21.756Z,4.00
2024-02-07T03:09:55.074Z,4.60
2024-02-07T03:10:28.509Z,4.40
2024-02-07T03:11:02.012Z,3.30
2024-02-07T03:11:35.637Z,3.90
2024-02-07T03:12:09.114Z,3.90
2024-02-07T03:12:42.906Z,5.00
2024-02-07T03:13:17.003Z,4.90
2024-02-07T03:13:52.276Z,4.70
2024-02-07T03:14:25.924Z,3.50
2024-02-07T03:14:59.413Z,3.80
2024-02-07T03:15:33.562Z,4.50
2024-02-07T03:16:10.225Z,4.60
2024-02-07T03:16:43.646Z,4.10
2024-02-07T03:17:16.991Z,3.30
2024-02-07T03:17:50.361Z,3.70
2024-02-07T03:18:25.800Z,3.60
2024-02-07T03:19:00.218Z,2.60
2024-02-07T03:19:34.076Z,3.20
2024-02-07T03:20:09.368Z,3.20
2024-02-07T03:20:42.930Z,3.40
2024-02-07T03:21:17.201Z,3.60
2024-02-07T03:21:50.558Z,3.70
2024-02-07T03:22:24.539Z,3.50
2024-02-07T03:22:59.413Z,3.60
2024-02-07T03:23:33.949Z,3.20
2024-02-07T03:24:08.368Z,3.20
2024-02-07T03:24:43.159Z,3.10
2024-02-07T03:25:18.114Z,3.70
2024-02-07T03:25:54.204Z,3.60
2024-02-07T03:26:31.054Z,3.30
2024-02-07T03:27:07.036Z,3.30
2024-02-07T03:27:42.557Z,3.20
2024-02-07T03:28:17.662Z,3.50
2024-02-07T03:28:53.332Z,3.90
2024-02-07T03:29:27.100Z,3.70
2024-02-07T03:30:00.428Z,3.00
2024-02-07T03:30:34.733Z,3.90
2024-02-07T03:31:11.814Z,3.60
2024-02-07T03:31:46.486Z,3.40
2024-02-07T03:32:21.372Z,2.70
2024-02-07T03:32:56.263Z,3.20
2024-02-07T03:33:30.777Z,3.70
2024-02-07T03:34:04.526Z,4.50
2024-02-07T03:34:39.118Z,3.80
2024-02-07T03:35:13.470Z,3.30
2024-02-07T03:35:47.911Z,3.60
2024-02-07T03:36:23.173Z,3.90
2024-02-07T03:36:56.475Z,3.60
2024-02-07T03:37:29.827Z,3.20
2024-02-07T03:38:04.995Z,3.70
2024-02-07T03:38:38.555Z,3.30
2024-02-07T03:39:12.615Z,3.70
2024-02-07T03:39:46.441Z,3.20
2024-02-07T03:40:20.536Z,3.80
2024-02-07T03:40:57.310Z,3.30
2024-02-07T03:41:30.923Z,3.30
2024-02-07T03:42:04.439Z,3.60
2024-02-07T03:42:37.816Z,3.80
2024-02-07T03:43:11.113Z,3.50
2024-02-07T03:43:46.359Z,3.10
2024-02-07T03:44:19.805Z,3.60
2024-02-07T03:44:54.628Z,3.10
2024-02-07T03:45:33.719Z,3.70
2024-02-07T03:46:11.513Z,3.40
2024-02-07T03:46:46.788Z,3.20
2024-02-07T03:47:20.689Z,3.50
2024-02-07T03:47:54.037Z,3.60
2024-02-07T03:48:28.949Z,2.90
2024-02-07T03:49:02.464Z,3.30
2024-02-07T03:49:36.085Z,3.80
2024-02-07T03:50:12.550Z,3.60
2024-02-07T03:50:50.128Z,3.70
2024-02-07T03:51:29.024Z,3.40
2024-02-07T03:52:02.504Z,3.90
2024-02-07T03:52:35.846Z,3.50
2024-02-07T03:53:09.274Z,3.40
2024-02-07T03:53:45.891Z,3.80
2024-02-07T03:54:19.813Z,3.60
2024-02-07T03:54:54.212Z,3.50
2024-02-07T03:55:28.533Z,3.40
2024-02-07T03:56:02.003Z,3.50
2024-02-07T03:56:35.536Z,4.00
2024-02-07T03:57:09.021Z,4.40
2024-02-07T03:57:43.876Z,3.90
2024-02-07T03:58:20.681Z,4.00
2024-02-07T03:58:54.529Z,3.30
2024-02-07T03:59:27.944Z,3.40
2024-02-07T04:00:03.869Z,3.40
2024-02-07T04:00:48.644Z,3.40
2024-02-07T04:01:22.271Z,3.10
2024-02-07T04:01:58.044Z,3.60
2024-02-07T04:02:33.945Z,3.40
2024-02-07T04:03:09.839Z,4.30
2024-02-07T04:03:43.661Z,3.30
2024-02-07T04:04:21.790Z,4.80
2024-02-07T04:04:55.599Z,4.00
2024-02-07T04:05:29.467Z,4.10
2024-02-07T04:06:06.214Z,4.50
2024-02-07T04:06:40.338Z,4.00
2024-02-07T04:07:14.134Z,3.80
2024-02-07T04:07:50.456Z,4.00
2024-02-07T04:08:24.752Z,4.40
2024-02-07T04:08:58.738Z,3.90
2024-02-07T04:09:32.525Z,3.90
2024-02-07T04:10:06.940Z,3.70
2024-02-07T04:10:41.031Z,3.30
2024-02-07T04:11:15.100Z,3.80
2024-02-07T04:11:50.942Z,3.70
2024-02-07T04:12:24.253Z,5.30
2024-02-07T04:12:57.471Z,3.70
2024-02-07T04:13:30.799Z,4.70
2024-02-07T04:14:06.729Z,3.50
2024-02-07T04:14:44.095Z,3.60
2024-02-07T04:15:18.477Z,3.60
2024-02-07T04:15:53.564Z,3.70
2024-02-07T04:16:27.692Z,3.20
2024-02-07T04:17:05.520Z,3.40
2024-02-07T04:17:39.499Z,3.20
2024-02-07T04:18:16.298Z,3.70
2024-02-07T04:18:50.430Z,3.40
2024-02-07T04:19:24.652Z,4.40
2024-02-07T04:19:58.746Z,3.90
2024-02-07T04:20:32.964Z,3.80
2024-02-07T04:21:09.207Z,3.60
2024-02-07T04:21:45.859Z,5.00
2024-02-07T04:22:19.989Z,3.30
2024-02-07T04:22:54.074Z,4.10
2024-02-07T04:23:28.092Z,4.50
2024-02-07T04:24:02.192Z,4.00
2024-02-07T04:24:36.282Z,3.70
2024-02-07T04:25:10.322Z,4.20
2024-02-07T04:25:44.429Z,4.20
2024-02-07T04:26:20.110Z,4.60
2024-02-07T04:26:54.705Z,4.80
2024-02-07T04:27:28.792Z,4.50
2024-02-07T04:28:03.118Z,3.90
2024-02-07T04:28:37.259Z,4.40
2024-02-07T04:29:11.490Z,4.10
2024-02-07T04:29:45.472Z,5.20
2024-02-07T04:30:19.507Z,4.50
2024-02-07T04:30:53.535Z,4.80
2024-02-07T04:31:27.711Z,4.10
2024-02-07T04:32:01.910Z,3.70
2024-02-07T04:32:35.976Z,4.20
2024-02-07T04:33:10.164Z,3.40
2024-02-07T04:33:44.411Z,4.60
2024-02-07T04:34:18.718Z,4.00
2024-02-07T04:34:53.065Z,4.50
2024-02-07T04:35:27.218Z,4.20
2024-02-07T04:36:01.514Z,3.60
2024-02-07T04:36:35.597Z,3.70
2024-02-07T04:37:09.743Z,3.80
2024-02-07T04:37:43.811Z,3.50
2024-02-07T04:38:18.063Z,4.00
2024-02-07T04:38:52.137Z,3.90
2024-02-07T04:39:26.198Z,4.10
2024-02-07T04:40:01.444Z,4.70
2024-02-07T04:40:35.672Z,4.50
2024-02-07T04:41:09.748Z,5.40
2024-02-07T04:41:44.657Z,4.00
2024-02-07T04:42:18.727Z,4.70
2024-02-07T04:42:52.778Z,4.00
2024-02-07T04:43:26.828Z,5.60
2024-02-07T04:44:00.837Z,4.50
2024-02-07T04:44:34.891Z,4.70
2024-02-07T04:45:09.449Z,4.90
2024-02-07T04:45:43.771Z,4.80
2024-02-07T04:46:18.114Z,4.10
2024-02-07T04:46:52.367Z,4.20
2024-02-07T04:47:26.464Z,4.10
2024-02-07T04:48:00.505Z,4.30
2024-02-07T04:48:34.972Z,4.30
2024-02-07T04:49:09.197Z,4.70
2024-02-07T04:49:43.395Z,4.90
2024-02-07T04:50:17.659Z,3.80
2024-02-07T04:50:52.684Z,4.90
2024-02-07T04:51:27.671Z,4.00
2024-02-07T04:52:02.051Z,4.70
2024-02-07T04:52:37.074Z,5.10
2024-02-07T04:53:11.032Z,3.80
2024-02-07T04:53:46.266Z,4.90
2024-02-07T04:54:20.360Z,5.40
2024-02-07T04:54:54.750Z,4.10
2024-02-07T04:55:29.632Z,4.00
2024-02-07T04:56:06.481Z,4.20
2024-02-07T04:56:40.824Z,4.50
2024-02-07T04:57:17.502Z,3.90
2024-02-07T04:57:51.564Z,5.00
2024-02-07T04:58:25.714Z,4.40
2024-02-07T04:58:59.930Z,3.90
2024-02-07T04:59:36.625Z,4.60
2024-02-07T05:00:11.002Z,3.60
2024-02-07T05:00:45.142Z,5.60
2024-02-07T05:01:19.268Z,4.50
2024-02-07T05:01:53.299Z,5.00
2024-02-07T05:02:28.549Z,5.00
2024-02-07T05:03:03.719Z,5.30
2024-02-07T05:03:37.781Z,5.20
2024-02-07T05:04:11.992Z,4.60
2024-02-07T05:04:46.206Z,4.90
2024-02-07T05:05:20.387Z,5.10
2024-02-07T05:05:54.859Z,4.80
2024-02-07T05:06:29.288Z,5.20
2024-02-07T05:07:03.397Z,4.80
2024-02-07T05:07:38.916Z,5.00
2024-02-07T05:08:12.904Z,4.70
2024-02-07T05:08:47.016Z,5.10
2024-02-07T05:09:21.073Z,4.30
2024-02-07T05:09:55.202Z,4.30
2024-02-07T05:10:29.818Z,4.50
2024-02-07T05:11:07.735Z,4.30
2024-02-07T05:11:42.044Z,4.50
2024-02-07T05:12:16.183Z,3.90
2024-02-07T05:12:50.188Z,5.30
2024-02-07T05:13:24.362Z,4.50
2024-02-07T05:13:59.640Z,4.50
2024-02-07T05:14:33.794Z,4.00
2024-02-07T05:15:07.290Z,3.90
2024-02-07T05:15:41.355Z,4.40
2024-02-07T05:16:15.928Z,4.30
2024-02-07T05:16:49.204Z,4.50
2024-02-07T05:17:25.139Z,4.60
2024-02-07T05:17:58.407Z,4.60
2024-02-07T05:18:31.902Z,5.30
2024-02-07T05:19:05.324Z,4.20
2024-02-07T05:19:38.853Z,4.40
2024-02-07T05:20:13.330Z,4.90
2024-02-07T05:20:50.303Z,5.00
2024-02-07T05:21:25.169Z,5.10
2024-02-07T05:21:59.457Z,5.40
2024-02-07T05:22:32.667Z,5.40
2024-02-07T05:23:06.137Z,5.20
2024-02-07T05:23:40.437Z,5.50
2024-02-07T05:24:13.748Z,4.10
2024-02-07T05:24:52.112Z,4.70
2024-02-07T05:25:25.413Z,4.60
2024-02-07T05:25:59.502Z,4.80
2024-02-07T05:26:36.359Z,4.40
2024-02-07T05:27:13.608Z,5.30
2024-02-07T05:27:48.592Z,4.60
2024-02-07T05:28:21.784Z,4.80
2024-02-07T05:28:55.168Z,4.40
2024-02-07T05:29:32.609Z,4.70
2024-02-07T05:30:07.015Z,4.40
2024-02-07T05:30:42.038Z,4.60
2024-02-07T05:31:15.747Z,4.00
2024-02-07T05:31:51.595Z,4.60
2024-02-07T05:32:27.970Z,4.50
2024-02-07T05:33:01.554Z,4.30
2024-02-07T05:33:35.266Z,4.40
2024-02-07T05:34:08.965Z,4.60
2024-02-07T05:34:42.785Z,4.30
2024-02-07T05:35:16.372Z,4.60
2024-02-07T05:35:53.481Z,5.00
2024-02-07T05:36:26.756Z,5.20
2024-02-07T05:37:00.092Z,4.30
2024-02-07T05:37:33.899Z,4.50
2024-02-07T05:38:07.121Z,4.40
2024-02-07T05:38:40.651Z,4.80
2024-02-07T05:39:14.240Z,4.10
2024-02-07T05:39:47.609Z,4.40
2024-02-07T05:40:21.114Z,4.60
2024-02-07T05:40:54.542Z,4.30
2024-02-07T05:41:27.822Z,5.30
2024-02-07T05:42:01.493Z,5.40
2024-02-07T05:42:34.834Z,5.40
2024-02-07T05:43:08.108Z,5.60
2024-02-07T05:43:41.922Z,4.40
2024-02-07T05:44:15.390Z,4.90
2024-02-07T05:44:49.949Z,5.10
2024-02-07T05:45:23.283Z,5.40
2024-02-07T05:45:56.890Z,5.00
2024-02-07T05:46:31.385Z,5.40
2024-02-07T05:47:05.075Z,5.20
2024-02-07T05:47:38.516Z,5.20
2024-02-07T05:48:12.106Z,4.90
2024-02-07T05:48:47.380Z,4.60
2024-02-07T05:49:20.851Z,4.40
2024-02-07T05:49:54.258Z,4.70
2024-02-07T05:50:29.265Z,4.30
2024-02-07T05:51:03.985Z,4.00
2024-02-07T05:51:37.335Z,5.20
2024-02-07T05:52:11.443Z,5.60
2024-02-07T05:52:44.886Z,4.70
2024-02-07T05:53:18.300Z,4.30
2024-02-07T05:53:51.577Z,4.50
2024-02-07T05:54:26.188Z,4.20
2024-02-07T05:54:59.752Z,5.40
2024-02-07T05:55:33.230Z,5.10
2024-02-07T05:56:09.853Z,4.20
2024-02-07T05:56:44.895Z,3.70
2024-02-07T05:57:18.183Z,5.20
2024-02-07T05:57:51.508Z,4.20
2024-02-07T05:58:25.083Z,4.50
2024-02-07T05:58:58.647Z,4.70
2024-02-07T05:59:33.281Z,4.40
2024-02-07T06:00:08.966Z,5.50
2024-02-07T06:00:44.080Z,5.60
2024-02-07T06:01:17.616Z,4.10
2024-02-07T06:01:52.236Z,5.40
2024-02-07T06:02:28.261Z,5.20
2024-02-07T06:03:09.393Z,4.10
2024-02-07T06:03:46.509Z,4.20
2024-02-07T06:04:21.125Z,4.40
2024-02-07T06:04:55.819Z,5.30
2024-02-07T06:05:30.270Z,4.90
2024-02-07T06:06:05.569Z,4.70
2024-02-07T06:06:39.212Z,6.20
2024-02-07T06:07:14.798Z,4.80
2024-02-07T06:07:48.350Z,4.80
2024-02-07T06:08:21.826Z,4.40
2024-02-07T06:08:57.999Z,4.60
2024-02-07T06:09:32.539Z,4.30
2024-02-07T06:10:11.419Z,4.50
2024-02-07T06:10:47.477Z,4.50
2024-02-07T06:11:22.884Z,4.70
2024-02-07T06:11:56.764Z,4.50
2024-02-07T06:12:32.366Z,4.80
2024-02-07T06:13:05.700Z,4.20
2024-02-07T06:13:40.325Z,4.20
2024-02-07T06:14:15.998Z,4.60
2024-02-07T06:14:49.693Z,4.80
2024-02-07T06:15:23.128Z,4.90
2024-02-07T06:15:56.491Z,5.40
2024-02-07T06:16:29.778Z,5.50
2024-02-07T06:17:03.434Z,5.20
2024-02-07T06:17:36.733Z,4.30
2024-02-07T06:18:10.046Z,4.70
2024-02-07T06:18:43.407Z,4.70
2024-02-07T06:19:19.974Z,4.20
2024-02-07T06:19:53.975Z,4.40
2024-02-07T06:20:28.170Z,4.40
2024-02-07T06:21:01.546Z,4.60
2024-02-07T06:21:34.916Z,4.50
2024-02-07T06:22:08.507Z,4.70
2024-02-07T06:22:47.150Z,4.40
2024-02-07T06:23:21.336Z,4.50
2024-02-07T06:23:56.577Z,4.80
2024-02-07T06:24:29.916Z,4.40
2024-02-07T06:25:05.206Z,4.40
2024-02-07T06:25:38.542Z,4.90
2024-02-07T06:26:11.894Z,4.60
2024-02-07T06:26:45.259Z,4.50
2024-02-07T06:27:18.755Z,4.00
2024-02-07T06:27:52.893Z,4.10
2024-02-07T06:28:26.325Z,4.30
2024-02-07T06:28:59.796Z,4.80
2024-02-07T06:29:35.329Z,4.30
2024-02-07T06:30:08.914Z,4.90
2024-02-07T06:30:42.856Z,5.70
2024-02-07T06:31:16.326Z,5.00
2024-02-07T06:31:49.717Z,4.20
2024-02-07T06:32:23.169Z,4.70
2024-02-07T06:32:56.559Z,4.20
2024-02-07T06:33:32.734Z,4.40
2024-02-07T06:34:06.438Z,4.40
2024-02-07T06:34:40.092Z,4.40
2024-02-07T06:35:16.578Z,4.20
2024-02-07T06:35:50.178Z,4.20
2024-02-07T06:36:23.553Z,4.30
2024-02-07T06:36:56.946Z,4.20
2024-02-07T06:37:30.231Z,4.40
2024-02-07T06:38:04.606Z,4.40
2024-02-07T06:38:40.487Z,5.50
2024-02-07T06:39:16.402Z,4.60
2024-02-07T06:39:49.692Z,5.40
2024-02-07T06:40:24.086Z,5.00
2024-02-07T06:41:11.559Z,4.10
2024-02-07T06:41:45.207Z,4.60
2024-02-07T06:42:21.303Z,4.60
2024-02-07T06:42:55.179Z,4.10
2024-02-07T06:43:37.254Z,5.10
2024-02-07T06:44:10.804Z,4.70
2024-02-07T06:44:44.284Z,5.00
2024-02-07T06:45:20.186Z,4.60
2024-02-07T06:45:53.542Z,4.90
2024-02-07T06:46:30.878Z,4.80
2024-02-07T06:47:04.495Z,5.10
2024-02-07T06:47:39.419Z,4.80
2024-02-07T06:48:12.873Z,5.00
2024-02-07T06:48:46.605Z,6.20
2024-02-07T06:49:20.066Z,5.60
2024-02-07T06:49:53.929Z,5.60
2024-02-07T06:50:28.503Z,5.50
2024-02-07T06:51:01.952Z,5.70
2024-02-07T06:51:35.499Z,6.20
2024-02-07T06:52:09.778Z,6.00
2024-02-07T06:52:44.412Z,4.80
2024-02-07T06:53:18.475Z,5.60
2024-02-07T06:53:51.751Z,5.60
2024-02-07T06:54:25.351Z,5.60
2024-02-07T06:54:58.608Z,5.20
2024-02-07T06:55:32.240Z,5.80
2024-02-07T06:56:06.083Z,5.50
2024-02-07T06:56:39.669Z,6.00
2024-02-07T06:57:13.198Z,5.50
2024-02-07T06:57:47.762Z,5.50
2024-02-07T06:58:21.199Z,5.40
2024-02-07T06:58:54.629Z,5.90
2024-02-07T06:59:28.065Z,5.30
2024-02-07T07:00:04.030Z,4.80
2024-02-07T07:00:37.333Z,5.00
2024-02-07T07:01:10.939Z,4.80
2024-02-07T07:01:44.349Z,3.90
2024-02-07T07:02:17.841Z,3.70
2024-02-07T07:02:53.717Z,3.90
2024-02-07T07:03:27.833Z,4.80
2024-02-07T07:04:01.124Z,4.50
2024-02-07T07:04:34.550Z,4.70
2024-02-07T07:05:08.100Z,4.90
2024-02-07T07:05:41.891Z,4.70
2024-02-07T07:06:15.429Z,5.30
2024-02-07T07:06:48.910Z,4.30
2024-02-07T07:07:22.381Z,4.20
2024-02-07T07:07:56.506Z,3.90
2024-02-07T07:08:29.843Z,3.80
2024-02-07T07:09:03.514Z,4.00
2024-02-07T07:09:39.480Z,3.90
2024-02-07T07:10:12.818Z,3.80
2024-02-07T07:10:46.281Z,4.50
2024-02-07T07:11:19.725Z,4.70
2024-02-07T07:11:53.007Z,4.50
2024-02-07T07:12:26.227Z,4.20
2024-02-07T07:13:09.757Z,4.80
2024-02-07T07:13:43.207Z,4.60
2024-02-07T07:14:17.138Z,3.80
2024-02-07T07:15:32.821Z,5.40
2024-02-07T07:16:16.407Z,4.50
2024-02-07T07:16:50.140Z,3.80
2024-02-07T07:17:23.594Z,4.00
2024-02-07T07:17:57.160Z,4.30
2024-02-07T07:18:30.749Z,3.90
2024-02-07T07:19:04.610Z,3.80
2024-02-07T07:19:38.195Z,4.10
2024-02-07T07:20:11.739Z,4.30
2024-02-07T07:20:45.502Z,4.80
2024-02-07T07:21:18.786Z,4.60
2024-02-07T07:21:52.157Z,3.90
2024-02-07T07:22:25.600Z,4.30
2024-02-07T07:23:08.098Z,3.80
2024-02-07T07:33:21.516Z,3.30
2024-02-07T07:34:00.109Z,3.70
2024-02-07T07:34:36.810Z,3.80
2024-02-07T07:35:12.899Z,3.90
2024-02-07T07:35:47.280Z,4.10
2024-02-07T07:36:30.148Z,4.10
2024-02-07T07:37:06.782Z,4.10
2024-02-07T07:37:42.679Z,4.10
2024-02-07T07:38:21.347Z,3.80
2024-02-07T07:38:58.300Z,3.70
2024-02-07T07:39:31.886Z,4.40
2024-02-07T07:40:06.014Z,3.70
2024-02-07T07:40:41.928Z,4.00
2024-02-07T07:41:20.853Z,3.90
2024-02-07T07:41:59.260Z,3.90
2024-02-07T07:42:35.990Z,4.00
2024-02-07T07:43:09.778Z,3.70
2024-02-07T07:43:46.189Z,4.20
2024-02-07T07:44:26.874Z,3.70
2024-02-07T07:45:37.439Z,3.30
2024-02-07T07:46:34.188Z,3.70
2024-02-07T07:47:07.662Z,3.80
2024-02-07T07:47:43.677Z,3.20
2024-02-07T07:48:23.624Z,3.80
2024-02-07T07:49:06.064Z,3.50
2024-02-07T07:49:43.285Z,3.40
2024-02-07T07:50:16.949Z,3.80
2024-02-07T07:50:53.115Z,3.70
2024-02-07T07:51:30.528Z,3.40
2024-02-07T07:52:04.280Z,4.10
2024-02-07T07:52:45.925Z,5.40
2024-02-07T07:53:19.249Z,7.50
2024-02-07T07:53:52.605Z,8.10
2024-02-07T07:54:26.691Z,8.60
2024-02-07T07:55:00.249Z,5.70
2024-02-07T07:55:33.971Z,4.80
2024-02-07T07:56:12.102Z,4.00
2024-02-07T07:56:46.136Z,5.30
2024-02-07T07:57:21.270Z,3.40
2024-02-07T07:57:57.523Z,4.40
2024-02-07T07:58:37.633Z,4.50
2024-02-07T07:59:18.005Z,4.40
2024-02-07T07:59:51.600Z,4.70
2024-02-07T08:00:28.140Z,4.80